createdAt,value
2018-01-17T00:00:02.232Z,3.20
2018-01-17T00:02:29.724Z,3.10
2018-01-17T00:04:57.260Z,3.20
2018-01-17T00:07:24.755Z,3.20
2018-01-17T00:09:53.028Z,3.10
2018-01-17T00:12:20.535Z,3.00
2018-01-17T00:14:48.045Z,3.10
2018-01-17T00:17:16.308Z,3.10
2018-01-17T00:19:44.799Z,3.00
2018-01-17T00:22:12.284Z,3.10
2018-01-17T00:24:40.548Z,3.00
2018-01-17T00:27:08.823Z,3.00
2018-01-17T00:29:37.077Z,3.00
2018-01-17T00:32:04.599Z,2.90
2018-01-17T00:34:32.090Z,3.00
2018-01-17T00:36:59.597Z,3.10
2018-01-17T00:39:27.164Z,3.00
2018-01-17T00:41:54.645Z,3.10
2018-01-17T00:44:22.141Z,3.10
2018-01-17T00:46:49.652Z,3.10
2018-01-17T00:49:17.169Z,3.10
2018-01-17T00:51:44.685Z,3.20
2018-01-17T00:54:12.206Z,3.20
2018-01-17T00:56:40.464Z,3.10
2018-01-17T00:59:07.987Z,3.00
2018-01-17T01:01:35.484Z,3.00
2018-01-17T01:04:03.000Z,3.10
2018-01-17T01:06:30.496Z,3.10
2018-01-17T01:08:58.007Z,3.00
2018-01-17T01:11:25.491Z,2.90
2018-01-17T01:13:52.992Z,3.00
2018-01-17T01:16:21.269Z,3.10
2018-01-17T01:18:50.536Z,3.00
2018-01-17T01:21:18.043Z,3.00
2018-01-17T01:23:45.549Z,3.00
2018-01-17T01:26:13.068Z,3.00
2018-01-17T01:28:40.598Z,3.00
2018-01-17T01:31:08.116Z,3.00
2018-01-17T01:33:36.393Z,3.20
2018-01-17T01:36:03.888Z,3.10
2018-01-17T01:38:31.400Z,3.10
2018-01-17T01:41:00.631Z,3.10
2018-01-17T01:43:28.147Z,3.00
2018-01-17T01:45:55.649Z,3.00
2018-01-17T01:48:23.174Z,2.90
2018-01-17T01:50:50.681Z,3.00
2018-01-17T01:53:18.192Z,3.00
2018-01-17T01:55:45.685Z,2.90
2018-01-17T01:58:13.199Z,3.00
2018-01-17T02:00:40.701Z,2.90
2018-01-17T02:03:08.200Z,2.90
2018-01-17T02:05:36.484Z,2.70
2018-01-17T02:08:04.756Z,2.80
2018-01-17T02:10:33.041Z,2.90
2018-01-17T02:13:00.544Z,2.80
2018-01-17T02:15:28.099Z,2.90
2018-01-17T02:17:55.588Z,2.90
2018-01-17T02:20:23.113Z,2.80
2018-01-17T02:22:50.628Z,2.80
2018-01-17T02:25:18.893Z,2.60
2018-01-17T02:27:46.416Z,2.50
2018-01-17T02:30:13.922Z,2.70
2018-01-17T02:32:42.207Z,2.80
2018-01-17T02:35:10.476Z,2.80
2018-01-17T02:37:38.756Z,2.80
2018-01-17T02:40:18.735Z,2.80
2018-01-17T02:42:46.259Z,2.70
2018-01-17T02:45:14.530Z,2.80
2018-01-17T02:47:42.056Z,2.70
2018-01-17T02:50:09.549Z,2.80
2018-01-17T02:52:37.818Z,2.90
2018-01-17T02:55:05.353Z,2.80
2018-01-17T02:57:32.857Z,2.80
2018-01-17T03:00:02.164Z,2.90
2018-01-17T03:02:30.418Z,2.80
2018-01-17T03:04:57.929Z,2.70
2018-01-17T03:07:25.432Z,2.90
2018-01-17T03:09:52.920Z,2.90
2018-01-17T03:12:21.204Z,2.90
2018-01-17T03:14:49.479Z,2.80
2018-01-17T03:17:17.769Z,2.70
2018-01-17T03:19:45.275Z,2.60
2018-01-17T03:22:12.794Z,2.80
2018-01-17T03:24:40.288Z,2.60
2018-01-17T03:27:07.781Z,2.50
2018-01-17T03:29:37.077Z,2.50
2018-01-17T03:32:05.353Z,2.40
2018-01-17T03:34:33.648Z,2.30
2018-01-17T03:37:01.972Z,2.50
2018-01-17T03:39:31.430Z,2.30
2018-01-17T03:41:59.695Z,2.50
2018-01-17T03:44:27.985Z,2.60
2018-01-17T03:46:56.252Z,2.60
2018-01-17T03:49:24.504Z,2.70
2018-01-17T03:51:52.023Z,2.60
2018-01-17T03:54:19.516Z,2.80
2018-01-17T03:56:47.048Z,2.70
2018-01-17T03:59:14.561Z,2.70
2018-01-17T04:01:42.077Z,2.70
2018-01-17T04:04:09.581Z,2.80
2018-01-17T04:06:37.860Z,2.70
2018-01-17T04:09:06.137Z,2.70
2018-01-17T04:11:34.406Z,2.60
2018-01-17T04:14:01.925Z,2.50
2018-01-17T04:16:29.444Z,2.60
2018-01-17T04:18:57.719Z,2.50
2018-01-17T04:21:25.996Z,2.40
2018-01-17T04:23:54.258Z,2.30
2018-01-17T04:26:21.777Z,2.20
2018-01-17T04:28:49.272Z,2.10
2018-01-17T04:31:16.833Z,1.90
2018-01-17T04:33:44.337Z,1.80
2018-01-17T04:36:11.848Z,1.80
2018-01-17T04:38:40.331Z,1.80
2018-01-17T04:41:07.897Z,1.70
2018-01-17T04:43:35.404Z,1.60
2018-01-17T04:46:02.903Z,1.60
2018-01-17T04:48:30.419Z,1.60
2018-01-17T04:51:00.790Z,1.60
2018-01-17T04:53:28.303Z,1.70
2018-01-17T04:55:55.788Z,1.80
2018-01-17T04:58:23.540Z,1.80
2018-01-17T05:00:51.022Z,1.70
2018-01-17T05:03:18.527Z,1.70
2018-01-17T05:05:46.792Z,1.60
2018-01-17T05:08:15.046Z,1.60
2018-01-17T05:10:42.547Z,1.60
2018-01-17T05:13:10.032Z,1.70
2018-01-17T05:15:37.551Z,1.70
2018-01-17T05:18:05.805Z,1.80
2018-01-17T05:20:33.306Z,1.70
2018-01-17T05:23:00.819Z,1.70
2018-01-17T05:25:28.332Z,1.70
2018-01-17T05:27:55.852Z,1.60
2018-01-17T05:30:23.344Z,1.60
2018-01-17T05:32:50.851Z,1.50
2018-01-17T05:35:18.340Z,1.50
2018-01-17T05:37:46.616Z,1.40
2018-01-17T05:40:14.875Z,1.50
2018-01-17T05:42:42.389Z,1.40
2018-01-17T05:45:09.884Z,1.50
2018-01-17T05:47:37.401Z,1.60
2018-01-17T05:50:04.891Z,1.60
2018-01-17T05:52:32.392Z,1.60
2018-01-17T05:55:00.678Z,1.50
2018-01-17T05:57:28.941Z,1.40
2018-01-17T05:59:57.521Z,1.20
2018-01-17T06:02:25.008Z,1.40
2018-01-17T06:04:53.644Z,1.30
2018-01-17T06:07:21.140Z,1.30
2018-01-17T06:09:49.427Z,1.20
2018-01-17T06:12:16.928Z,1.00
2018-01-17T06:14:44.445Z,1.10
2018-01-17T06:17:11.952Z,1.10
2018-01-17T06:19:39.441Z,1.20
2018-01-17T06:22:06.960Z,1.20
2018-01-17T06:24:34.456Z,1.20
2018-01-17T06:27:01.970Z,1.20
2018-01-17T06:29:30.519Z,1.30
2018-01-17T06:31:58.808Z,1.20
2018-01-17T06:34:26.308Z,1.10
2018-01-17T06:36:53.828Z,1.20
2018-01-17T06:39:21.344Z,1.30
2018-01-17T06:41:48.837Z,1.30
2018-01-17T06:44:17.126Z,1.30
2018-01-17T06:46:44.629Z,1.20
2018-01-17T06:49:12.158Z,1.40
2018-01-17T06:51:39.668Z,1.40
2018-01-17T06:54:07.172Z,1.30
2018-01-17T06:56:34.692Z,1.30
2018-01-17T06:59:02.778Z,1.40
2018-01-17T07:01:30.327Z,1.30
2018-01-17T07:03:57.820Z,1.30
2018-01-17T07:06:25.341Z,1.20
2018-01-17T07:08:52.927Z,1.30
2018-01-17T07:11:20.484Z,1.30
2018-01-17T07:13:48.743Z,1.30
2018-01-17T07:16:17.040Z,1.20
2018-01-17T07:18:45.306Z,1.10
2018-01-17T07:21:13.569Z,1.10
2018-01-17T07:23:41.114Z,1.00
2018-01-17T07:26:08.614Z,1.10
2018-01-17T07:28:36.907Z,1.10
2018-01-17T07:31:04.416Z,1.10
2018-01-17T07:33:31.937Z,1.10
2018-01-17T07:35:59.444Z,1.10
2018-01-17T07:38:26.964Z,1.10
2018-01-17T07:40:54.472Z,1.20
2018-01-17T07:43:22.734Z,1.30
2018-01-17T07:45:50.257Z,1.20
2018-01-17T07:48:17.767Z,1.40
2018-01-17T07:50:46.053Z,1.30
2018-01-17T07:53:14.328Z,1.40
2018-01-17T07:55:42.608Z,1.30
2018-01-17T07:58:10.880Z,1.30
2018-01-17T08:00:38.374Z,1.20
2018-01-17T08:03:05.908Z,1.30
2018-01-17T08:05:34.164Z,1.40
2018-01-17T08:08:01.680Z,1.30
2018-01-17T08:10:29.181Z,1.30
2018-01-17T08:12:56.704Z,1.40
2018-01-17T08:15:24.197Z,1.30
2018-01-17T08:17:51.704Z,1.40
2018-01-17T08:20:19.261Z,1.50
2018-01-17T08:22:46.785Z,1.60
2018-01-17T08:25:14.308Z,1.60
2018-01-17T08:27:41.800Z,1.60
2018-01-17T08:30:09.344Z,1.70
2018-01-17T08:32:36.849Z,1.70
2018-01-17T08:35:04.376Z,1.80
2018-01-17T08:37:31.896Z,1.70
2018-01-17T08:39:59.559Z,1.70
2018-01-17T08:42:27.084Z,1.90
2018-01-17T08:44:55.348Z,1.90
2018-01-17T08:47:22.853Z,1.70
2018-01-17T08:49:50.372Z,1.90
2018-01-17T08:52:18.631Z,1.80
2018-01-17T08:54:46.144Z,1.70
2018-01-17T08:57:13.650Z,1.70
2018-01-17T08:59:42.074Z,1.80
2018-01-17T09:02:09.587Z,1.80
2018-01-17T09:04:37.088Z,1.80
2018-01-17T09:07:04.602Z,1.90
2018-01-17T09:09:32.108Z,1.80
2018-01-17T09:11:59.613Z,1.90
2018-01-17T09:14:27.148Z,1.80
2018-01-17T09:16:54.641Z,1.70
2018-01-17T09:19:22.161Z,1.80
2018-01-17T09:21:49.657Z,1.70
2018-01-17T09:24:17.177Z,1.70
2018-01-17T09:26:44.723Z,1.70
2018-01-17T09:29:12.229Z,1.60
2018-01-17T09:31:39.740Z,1.40
2018-01-17T09:34:07.286Z,0.90
2018-01-17T09:36:35.927Z,0.70
2018-01-17T09:39:03.484Z,0.80
2018-01-17T09:41:30.985Z,0.50
2018-01-17T09:43:59.280Z,0.20
2018-01-17T09:46:27.977Z,0.20
2018-01-17T09:48:55.497Z,-0.10
2018-01-17T09:51:23.017Z,0.00
2018-01-17T09:53:53.908Z,0.00
2018-01-17T09:56:21.448Z,0.20
2018-01-17T09:58:48.952Z,0.30
2018-01-17T10:01:16.451Z,0.50
2018-01-17T10:03:43.989Z,0.50
2018-01-17T10:06:11.505Z,0.70
2018-01-17T10:08:40.964Z,0.80
2018-01-17T10:11:08.461Z,0.70
2018-01-17T10:13:35.965Z,1.00
2018-01-17T10:16:03.488Z,1.00
2018-01-17T10:18:31.762Z,1.40
2018-01-17T10:21:00.056Z,1.30
2018-01-17T10:23:27.597Z,1.30
2018-01-17T10:25:55.102Z,1.40
2018-01-17T10:28:22.621Z,1.30
2018-01-17T10:30:50.881Z,1.30
2018-01-17T10:33:18.404Z,1.20
2018-01-17T10:35:45.899Z,1.40
2018-01-17T10:38:13.403Z,1.60
2018-01-17T10:40:40.920Z,1.80
2018-01-17T10:43:09.192Z,1.80
2018-01-17T10:45:36.720Z,1.70
2018-01-17T10:48:04.415Z,1.70
2018-01-17T10:50:31.920Z,1.80
2018-01-17T10:52:59.439Z,1.80
2018-01-17T10:55:27.056Z,1.80
2018-01-17T10:57:54.578Z,1.80
2018-01-17T11:00:22.073Z,1.70
2018-01-17T11:02:49.588Z,1.60
2018-01-17T11:05:17.110Z,1.50
2018-01-17T11:07:44.612Z,1.50
2018-01-17T11:10:12.132Z,1.50
2018-01-17T11:12:39.629Z,1.70
2018-01-17T11:15:07.917Z,1.90
2018-01-17T11:17:36.178Z,1.90
2018-01-17T11:20:03.668Z,1.80
2018-01-17T11:22:31.185Z,2.10
2018-01-17T11:24:58.731Z,2.00
2018-01-17T11:27:26.261Z,2.00
2018-01-17T11:29:53.761Z,2.10
2018-01-17T11:32:21.279Z,1.90
2018-01-17T11:34:48.805Z,1.70
2018-01-17T11:37:17.073Z,1.60
2018-01-17T11:39:44.596Z,1.50
2018-01-17T11:42:12.101Z,1.60
2018-01-17T11:44:40.402Z,1.80
2018-01-17T11:47:07.908Z,1.70
2018-01-17T11:49:35.408Z,1.90
2018-01-17T11:52:02.947Z,1.70
2018-01-17T11:54:30.466Z,1.60
2018-01-17T11:56:57.982Z,1.40
2018-01-17T11:59:25.489Z,1.40
2018-01-17T12:01:53.001Z,1.40
2018-01-17T12:04:21.287Z,1.40
2018-01-17T12:06:49.547Z,1.60
2018-01-17T12:09:17.817Z,1.80
2018-01-17T12:11:46.116Z,1.80
2018-01-17T12:14:14.405Z,1.80
2018-01-17T12:16:42.698Z,1.80
2018-01-17T12:19:10.192Z,1.70
2018-01-17T12:21:37.688Z,1.80
2018-01-17T12:24:05.983Z,1.90
2018-01-17T12:26:33.475Z,1.80
2018-01-17T12:29:01.002Z,1.90
2018-01-17T12:31:28.512Z,1.80
2018-01-17T12:33:56.048Z,1.70
2018-01-17T12:36:23.553Z,1.60
2018-01-17T12:38:51.827Z,1.50
2018-01-17T12:41:20.162Z,1.40
2018-01-17T12:43:47.666Z,1.30
2018-01-17T12:46:15.964Z,1.40
2018-01-17T12:48:43.473Z,1.30
2018-01-17T12:51:10.998Z,1.40
2018-01-17T12:53:38.489Z,1.60
2018-01-17T12:56:06.028Z,1.60
2018-01-17T12:58:33.545Z,1.70
2018-01-17T13:01:01.810Z,1.80
2018-01-17T13:03:29.336Z,1.70
2018-01-17T13:05:56.844Z,1.90
2018-01-17T13:08:25.098Z,1.90
2018-01-17T13:10:52.628Z,1.80
2018-01-17T13:13:20.144Z,1.80
2018-01-17T13:15:48.430Z,2.00
2018-01-17T13:18:16.710Z,2.00
2018-01-17T13:20:44.975Z,2.00
2018-01-17T13:23:13.262Z,2.00
2018-01-17T13:25:41.531Z,1.90
2018-01-17T13:28:09.817Z,2.00
2018-01-17T13:30:38.091Z,2.10
2018-01-17T13:33:06.358Z,2.10
2018-01-17T13:35:34.636Z,2.20
2018-01-17T13:38:02.143Z,2.10
2018-01-17T13:40:29.667Z,2.20
2018-01-17T13:42:57.927Z,2.20
2018-01-17T13:45:26.212Z,2.20
2018-01-17T13:47:55.124Z,2.20
2018-01-17T13:50:22.629Z,2.10
2018-01-17T13:52:50.157Z,2.30
2018-01-17T13:55:17.655Z,2.30
2018-01-17T13:57:45.170Z,2.40
2018-01-17T14:00:12.667Z,2.40
2018-01-17T14:02:40.161Z,2.30
2018-01-17T14:05:08.442Z,2.30
2018-01-17T14:07:36.710Z,2.30
2018-01-17T14:10:04.995Z,2.20
2018-01-17T14:12:33.260Z,2.20
2018-01-17T14:15:01.520Z,2.30
2018-01-17T14:17:29.029Z,2.20
2018-01-17T14:19:56.527Z,2.30
2018-01-17T14:22:24.054Z,2.30
2018-01-17T14:24:51.548Z,2.20
2018-01-17T14:27:19.057Z,2.10
2018-01-17T14:29:46.613Z,1.90
2018-01-17T14:32:14.104Z,1.80
2018-01-17T14:34:41.624Z,1.50
2018-01-17T14:37:09.881Z,1.40
2018-01-17T14:39:37.405Z,1.30
2018-01-17T14:42:04.913Z,1.40
2018-01-17T14:44:33.226Z,1.70
2018-01-17T14:47:00.729Z,1.60
2018-01-17T14:49:29.235Z,1.60
2018-01-17T14:51:57.520Z,1.70
2018-01-17T14:54:25.782Z,1.70
2018-01-17T14:56:53.304Z,1.60
2018-01-17T14:59:20.806Z,1.80
2018-01-17T15:01:49.077Z,1.70
2018-01-17T15:04:16.606Z,1.70
2018-01-17T15:06:45.100Z,1.80
2018-01-17T15:09:12.614Z,1.90
2018-01-17T15:11:40.112Z,1.90
2018-01-17T15:14:07.617Z,1.90
2018-01-17T15:16:35.905Z,1.80
2018-01-17T15:19:05.377Z,1.70
2018-01-17T15:21:32.909Z,1.80
2018-01-17T15:24:00.459Z,1.90
2018-01-17T15:26:27.977Z,1.80
2018-01-17T15:29:01.352Z,1.70
2018-01-17T15:31:28.952Z,1.70
2018-01-17T15:33:56.477Z,1.70
2018-01-17T15:36:23.977Z,1.80
2018-01-17T15:38:51.502Z,1.80
2018-01-17T15:41:19.016Z,1.80
2018-01-17T15:43:46.548Z,1.80
2018-01-17T15:46:14.060Z,1.70
2018-01-17T15:48:41.740Z,1.70
2018-01-17T15:51:09.279Z,1.60
2018-01-17T15:53:36.791Z,1.60
2018-01-17T15:56:04.320Z,1.70
2018-01-17T15:58:31.829Z,1.60
2018-01-17T16:00:59.325Z,1.50
2018-01-17T16:03:26.832Z,1.70
2018-01-17T16:05:54.406Z,1.70
2018-01-17T16:08:21.933Z,1.70
2018-01-17T16:10:50.196Z,1.90
2018-01-17T16:13:18.485Z,1.90
2018-01-17T16:15:46.764Z,2.00
2018-01-17T16:18:15.030Z,1.90
2018-01-17T16:20:42.565Z,1.90
2018-01-17T16:23:10.057Z,2.00
2018-01-17T16:25:38.322Z,1.90
2018-01-17T16:28:05.838Z,1.70
2018-01-17T16:30:34.101Z,1.70
2018-01-17T16:33:01.616Z,1.70
2018-01-17T16:35:29.117Z,1.80
2018-01-17T16:37:56.621Z,1.90
2018-01-17T16:40:24.136Z,1.90
2018-01-17T16:42:51.640Z,2.00
2018-01-17T16:45:19.167Z,2.00
2018-01-17T16:47:46.661Z,2.00
2018-01-17T16:50:14.156Z,2.10
2018-01-17T16:52:42.471Z,2.20
2018-01-17T16:55:09.965Z,2.10
2018-01-17T16:57:41.513Z,2.20
2018-01-17T17:00:09.028Z,2.20
2018-01-17T17:02:36.521Z,2.20
2018-01-17T17:05:04.036Z,2.20
2018-01-17T17:07:31.524Z,2.20
2018-01-17T17:09:59.025Z,2.20
2018-01-17T17:12:27.306Z,2.30
2018-01-17T17:14:55.565Z,2.30
2018-01-17T17:17:23.084Z,2.20
2018-01-17T17:19:50.585Z,2.30
2018-01-17T17:22:18.124Z,2.20
2018-01-17T17:24:45.616Z,2.30
2018-01-17T17:27:13.106Z,2.30
2018-01-17T17:29:40.667Z,2.20
2018-01-17T17:32:08.152Z,2.20
2018-01-17T17:34:35.668Z,2.20
2018-01-17T17:37:03.945Z,2.30
2018-01-17T17:39:32.208Z,2.30
2018-01-17T17:42:00.496Z,2.30
2018-01-17T17:44:28.789Z,2.30
2018-01-17T17:46:56.324Z,2.20
2018-01-17T17:49:24.602Z,2.20
2018-01-17T17:51:52.097Z,2.10
2018-01-17T17:54:19.617Z,2.20
2018-01-17T17:56:47.118Z,2.10
2018-01-17T17:59:14.700Z,2.10
2018-01-17T18:01:42.201Z,2.10
2018-01-17T18:04:09.703Z,2.10
2018-01-17T18:06:37.221Z,2.10
2018-01-17T18:09:07.434Z,2.30
2018-01-17T18:11:34.959Z,2.20
2018-01-17T18:14:02.464Z,2.20
2018-01-17T18:16:30.746Z,2.30
2018-01-17T18:18:59.039Z,2.20
2018-01-17T18:21:26.554Z,2.10
2018-01-17T18:23:54.080Z,2.20
2018-01-17T18:26:21.608Z,2.30
2018-01-17T18:28:49.961Z,2.30
2018-01-17T18:31:18.393Z,2.20
2018-01-17T18:33:45.897Z,2.20
2018-01-17T18:36:13.437Z,2.20
2018-01-17T18:38:40.956Z,2.20
2018-01-17T18:41:08.470Z,2.20
2018-01-17T18:43:36.015Z,2.20
2018-01-17T18:46:03.531Z,2.10
2018-01-17T18:48:31.052Z,2.20
2018-01-17T18:50:58.558Z,2.30
2018-01-17T18:53:26.064Z,2.30
2018-01-17T18:55:53.601Z,2.20
2018-01-17T18:58:21.094Z,2.10
2018-01-17T19:00:48.619Z,2.10
2018-01-17T19:03:16.120Z,2.00
2018-01-17T19:05:43.629Z,2.00
2018-01-17T19:08:11.144Z,2.10
2018-01-17T19:10:38.649Z,2.10
2018-01-17T19:13:06.182Z,2.10
2018-01-17T19:15:34.454Z,2.20
2018-01-17T19:18:02.723Z,2.30
2018-01-17T19:20:31.024Z,2.30
2018-01-17T19:22:58.538Z,2.30
2018-01-17T19:25:26.072Z,2.40
2018-01-17T19:27:53.596Z,2.40
2018-01-17T19:30:21.096Z,2.40
2018-01-17T19:32:48.666Z,2.40
2018-01-17T19:35:16.174Z,2.50
2018-01-17T19:37:44.450Z,2.40
2018-01-17T19:40:12.757Z,2.40
2018-01-17T19:42:40.262Z,2.40
2018-01-17T19:45:07.808Z,2.40
2018-01-17T19:47:35.329Z,2.30
2018-01-17T19:50:02.885Z,2.30
2018-01-17T19:52:30.418Z,2.40
2018-01-17T19:54:58.677Z,2.50
2018-01-17T19:57:26.202Z,2.40
2018-01-17T19:59:53.702Z,2.30
2018-01-17T20:02:21.219Z,2.40
2018-01-17T20:04:48.718Z,2.50
2018-01-17T20:07:16.209Z,2.40
2018-01-17T20:09:43.768Z,2.40
2018-01-17T20:12:12.156Z,2.40
2018-01-17T20:14:39.668Z,2.40
2018-01-17T20:17:07.198Z,2.50
2018-01-17T20:19:35.461Z,2.50
2018-01-17T20:22:02.985Z,2.40
2018-01-17T20:24:31.258Z,2.50
2018-01-17T20:26:59.559Z,2.50
2018-01-17T20:29:27.836Z,2.50
2018-01-17T20:31:56.112Z,2.50
2018-01-17T20:34:24.369Z,2.60
2018-01-17T20:36:52.660Z,2.60
2018-01-17T20:39:26.678Z,2.50
2018-01-17T20:41:54.952Z,2.50
2018-01-17T20:44:23.251Z,2.50
2018-01-17T20:46:50.772Z,2.40
2018-01-17T20:49:19.066Z,2.40
2018-01-17T20:51:47.349Z,2.40
2018-01-17T20:54:14.868Z,2.30
2018-01-17T20:56:42.396Z,2.40
2018-01-17T20:59:09.901Z,2.30
2018-01-17T21:01:37.396Z,2.40
2018-01-17T21:04:04.908Z,2.30
2018-01-17T21:06:32.407Z,2.30
2018-01-17T21:08:59.922Z,2.30
2018-01-17T21:11:27.440Z,2.30
2018-01-17T21:13:54.939Z,2.30
2018-01-17T21:16:22.462Z,2.10
2018-01-17T21:18:49.960Z,2.00
2018-01-17T21:21:17.484Z,2.00
2018-01-17T21:23:45.000Z,2.00
2018-01-17T21:26:13.304Z,1.90
2018-01-17T21:28:40.809Z,1.90
2018-01-17T21:31:08.315Z,2.00
2018-01-17T21:33:36.593Z,2.10
2018-01-17T21:36:04.869Z,2.10
2018-01-17T21:38:33.172Z,2.00
2018-01-17T21:41:00.685Z,1.90
2018-01-17T21:43:33.910Z,2.10
2018-01-17T21:46:01.434Z,2.20
2018-01-17T21:48:28.936Z,2.10
2018-01-17T21:50:56.464Z,2.10
2018-01-17T21:53:24.741Z,1.80
2018-01-17T21:55:53.034Z,1.80
2018-01-17T21:58:21.316Z,1.80
2018-01-17T22:00:48.819Z,1.70
2018-01-17T22:03:16.341Z,1.70
2018-01-17T22:05:43.843Z,1.80
2018-01-17T22:08:11.361Z,1.90
2018-01-17T22:10:38.874Z,1.90
2018-01-17T22:13:06.410Z,1.90
2018-01-17T22:15:33.918Z,1.80
2018-01-17T22:18:01.457Z,1.90
2018-01-17T22:20:28.970Z,1.70
2018-01-17T22:22:56.471Z,1.70
2018-01-17T22:25:23.994Z,1.70
2018-01-17T22:27:55.196Z,1.70
2018-01-17T22:30:23.524Z,1.60
2018-01-17T22:32:51.046Z,1.50
2018-01-17T22:35:19.315Z,1.70
2018-01-17T22:37:47.596Z,1.60
2018-01-17T22:40:15.853Z,1.60
2018-01-17T22:42:43.380Z,1.50
2018-01-17T22:45:10.873Z,1.50
2018-01-17T22:47:38.396Z,1.60
2018-01-17T22:50:05.918Z,1.60
2018-01-17T22:52:34.180Z,1.70
2018-01-17T22:55:01.698Z,1.60
2018-01-17T22:57:29.206Z,1.70
2018-01-17T22:59:56.715Z,1.60
2018-01-17T23:02:24.233Z,1.60
2018-01-17T23:04:52.499Z,1.70
2018-01-17T23:07:20.795Z,1.80
2018-01-17T23:09:49.056Z,1.80
2018-01-17T23:12:17.328Z,1.80
2018-01-17T23:14:45.611Z,1.80
2018-01-17T23:17:13.885Z,1.80
2018-01-17T23:19:43.186Z,1.90
2018-01-17T23:22:11.460Z,1.90
2018-01-17T23:24:38.958Z,1.80
2018-01-17T23:27:06.482Z,1.90
2018-01-17T23:29:35.752Z,1.80
2018-01-17T23:32:03.287Z,1.70
2018-01-17T23:34:30.792Z,1.90
2018-01-17T23:36:58.277Z,2.00
2018-01-17T23:39:27.570Z,2.10
2018-01-17T23:41:55.848Z,2.10
2018-01-17T23:44:24.133Z,2.00
2018-01-17T23:46:52.392Z,2.00
2018-01-17T23:49:19.904Z,1.90
2018-01-17T23:51:47.396Z,2.10
2018-01-17T23:54:14.900Z,2.10
2018-01-17T23:56:42.408Z,2.10
2018-01-17T23:59:10.891Z,2.00
